Time;durP1;ratioP1;P1;durP2;ratioP2;P2;SDS_P1;SDS_P2;PMS_P1;PMS_P2;Temp;Humidity;BMP_temperature;BMP_pressure;BME280_temperature;BME280_humidity;BME280_pressure;Samples;Min_cycle;Max_cycle;Signal;HPM_P1;HPM_P2
2021/09/06 00:02:05;;;;;;;7.27;6.30;;;;;;;17.77;47.73;95618.09;5044486;28;20488;-66
2021/09/06 00:04:33;;;;;;;10.67;6.40;;;;;;;17.53;48.19;95638.50;5063678;28;20940;-66
2021/09/06 00:07:00;;;;;;;7.67;5.80;;;;;;;17.23;48.85;95635.03;5055215;28;20479;-69
2021/09/06 00:09:27;;;;;;;8.93;5.60;;;;;;;17.39;48.69;95637.56;5057117;28;20431;-68
2021/09/06 00:11:54;;;;;;;10.80;6.70;;;;;;;17.62;48.03;95639.47;5052964;28;20438;-68
2021/09/06 00:14:22;;;;;;;7.93;5.87;;;;;;;17.57;48.16;95639.53;5036697;28;20482;-70
2021/09/06 00:16:49;;;;;;;6.67;5.47;;;;;;;17.54;47.96;95637.41;5053683;28;20514;-71
2021/09/06 00:19:17;;;;;;;9.67;6.07;;;;;;;17.49;48.74;95648.06;5057319;28;20480;-69
2021/09/06 00:21:44;;;;;;;8.60;5.93;;;;;;;17.54;48.13;95653.31;5052256;28;20428;-68
2021/09/06 00:24:11;;;;;;;9.90;5.77;;;;;;;17.64;48.28;95653.22;5050598;28;20442;-67
2021/09/06 00:26:39;;;;;;;8.90;6.47;;;;;;;17.66;48.93;95648.44;5054624;28;20459;-69
2021/09/06 00:29:05;;;;;;;13.57;7.00;;;;;;;17.61;48.95;95656.44;5049852;28;20925;-67
2021/09/06 00:31:33;;;;;;;12.50;7.23;;;;;;;17.55;48.98;95655.72;5049428;28;20438;-71
2021/09/06 00:34:00;;;;;;;11.37;7.13;;;;;;;17.42;49.05;95653.69;5045875;28;20876;-69
2021/09/06 00:36:27;;;;;;;10.37;7.17;;;;;;;17.45;49.20;95654.97;5045762;28;20832;-70
2021/09/06 00:38:54;;;;;;;12.63;7.73;;;;;;;17.50;48.62;95660.25;5063990;28;20474;-68
2021/09/06 00:41:24;;;;;;;11.53;7.97;;;;;;;17.17;48.87;95654.69;5063950;28;21047;-67
2021/09/06 00:43:52;;;;;;;9.17;6.90;;;;;;;17.24;49.98;95668.38;5051358;28;20976;-73
2021/09/06 00:46:20;;;;;;;9.80;7.30;;;;;;;16.99;50.14;95670.44;5040777;28;20945;-67
2021/09/06 00:48:47;;;;;;;11.60;7.10;;;;;;;17.15;50.34;95678.00;5033397;28;20452;-68
2021/09/06 00:51:14;;;;;;;8.20;5.97;;;;;;;17.19;49.68;95665.78;5050834;28;20545;-66
2021/09/06 00:53:42;;;;;;;8.40;6.70;;;;;;;17.25;49.47;95671.84;5039514;28;20459;-69
2021/09/06 00:56:09;;;;;;;8.73;6.37;;;;;;;17.22;50.13;95669.75;5063655;28;20468;-68
2021/09/06 00:58:38;;;;;;;8.67;6.47;;;;;;;17.27;49.31;95667.06;5060510;28;20777;-68
2021/09/06 01:01:05;;;;;;;11.30;7.07;;;;;;;17.29;50.20;95675.53;5057510;28;20471;-68
2021/09/06 01:03:33;;;;;;;10.07;7.03;;;;;;;17.24;50.46;95671.03;5057001;28;20448;-68
2021/09/06 01:06:15;;;;;;;10.33;7.23;;;;;;;16.97;50.70;95673.38;5053964;28;20451;-70
2021/09/06 01:09:03;;;;;;;10.47;6.20;;;;;;;17.11;50.57;95669.06;5047370;28;20444;-71
2021/09/06 01:12:09;;;;;;;11.77;6.80;;;;;;;17.20;50.69;95662.09;5050628;28;20438;-67
2021/09/06 01:14:41;;;;;;;12.80;8.27;;;;;;;17.40;50.45;95670.91;5049997;28;20439;-68
2021/09/06 01:17:09;;;;;;;9.80;7.53;;;;;;;17.05;51.36;95679.94;5030298;28;20528;-67
2021/09/06 01:19:38;;;;;;;10.87;7.73;;;;;;;16.98;51.51;95676.81;5035024;28;20447;-68
2021/09/06 01:22:07;;;;;;;11.50;7.70;;;;;;;17.06;51.75;95676.25;5043674;28;20505;-70
2021/09/06 01:24:42;;;;;;;10.97;7.00;;;;;;;17.18;51.68;95679.31;5042964;28;21379;-69
2021/09/06 01:27:15;;;;;;;12.33;8.20;;;;;;;17.26;51.71;95677.94;5045451;28;20475;-68
2021/09/06 01:29:44;;;;;;;9.87;7.37;;;;;;;17.30;51.38;95677.09;5039679;28;20833;-70
2021/09/06 01:32:15;;;;;;;13.17;7.90;;;;;;;17.27;51.97;95676.84;5031543;28;20594;-69
2021/09/06 01:34:45;;;;;;;10.00;7.67;;;;;;;17.36;51.56;95681.28;5052760;28;20471;-68
2021/09/06 01:37:12;;;;;;;12.70;7.70;;;;;;;17.40;51.61;95681.50;5052001;28;20450;-68
2021/09/06 01:39:45;;;;;;;12.00;7.77;;;;;;;17.18;52.38;95666.88;5064195;28;20442;-68
2021/09/06 01:42:13;;;;;;;10.33;7.67;;;;;;;17.29;52.56;95677.38;5056944;28;20518;-68
2021/09/06 01:44:40;;;;;;;9.10;7.43;;;;;;;17.12;52.70;95683.84;5038264;28;20479;-68
2021/09/06 01:47:11;;;;;;;10.53;7.70;;;;;;;17.29;53.30;95690.63;5045229;28;20475;-67
2021/09/06 01:49:38;;;;;;;11.70;8.27;;;;;;;17.17;52.60;95693.59;5045378;28;20454;-69
2021/09/06 01:52:06;;;;;;;10.73;7.57;;;;;;;17.28;52.72;95683.75;5043820;28;20454;-70
2021/09/06 01:54:34;;;;;;;11.40;7.47;;;;;;;17.26;52.88;95678.72;5032136;28;20958;-62
2021/09/06 01:57:03;;;;;;;12.33;7.93;;;;;;;17.27;52.72;95688.25;5028231;28;20549;-68
2021/09/06 01:59:30;;;;;;;9.53;7.57;;;;;;;17.24;53.29;95678.97;5047755;28;20451;-66
2021/09/06 02:01:58;;;;;;;10.33;7.70;;;;;;;17.16;53.08;95692.84;5048066;28;20458;-66
2021/09/06 02:04:33;;;;;;;9.60;7.93;;;;;;;17.12;53.82;95686.50;5044686;28;20451;-66
2021/09/06 02:07:00;;;;;;;10.63;7.63;;;;;;;17.20;52.96;95693.06;5055940;28;20482;-69
2021/09/06 02:09:27;;;;;;;14.70;7.77;;;;;;;17.28;53.93;95686.41;5052107;28;20475;-69
2021/09/06 02:11:54;;;;;;;12.13;8.40;;;;;;;17.34;53.72;95685.25;5056994;28;20852;-69
2021/09/06 02:14:22;;;;;;;11.43;8.20;;;;;;;17.33;53.88;95687.16;5052686;28;20849;-69
2021/09/06 02:16:51;;;;;;;12.97;8.17;;;;;;;17.32;54.06;95684.78;5011934;28;20440;-68
2021/09/06 02:19:35;;;;;;;10.97;8.10;;;;;;;17.36;53.79;95688.44;5030231;28;20509;-69
2021/09/06 02:22:03;;;;;;;14.20;8.47;;;;;;;17.44;54.05;95685.19;5029439;28;20518;-73
2021/09/06 02:24:38;;;;;;;12.10;8.23;;;;;;;17.34;53.94;95687.91;5041866;28;20541;-71
2021/09/06 02:27:17;;;;;;;9.87;7.60;;;;;;;17.22;53.99;95673.16;5047548;28;20504;-70
2021/09/06 02:29:44;;;;;;;14.53;9.23;;;;;;;17.44;53.52;95687.84;5035314;28;20517;-71
2021/09/06 02:32:18;;;;;;;12.97;9.33;;;;;;;17.45;54.20;95684.09;5030645;28;20483;-70
2021/09/06 02:34:57;;;;;;;14.00;9.70;;;;;;;17.37;54.48;95682.06;5052154;28;20898;-69
2021/09/06 02:37:26;;;;;;;16.27;10.47;;;;;;;17.36;54.49;95681.28;5065860;28;20446;-67
2021/09/06 02:39:55;;;;;;;13.00;10.67;;;;;;;17.37;54.41;95687.38;5046508;28;21047;-67
2021/09/06 02:42:22;;;;;;;12.43;10.20;;;;;;;17.28;54.89;95692.47;5034683;28;21025;-65
2021/09/06 02:44:51;;;;;;;13.97;10.60;;;;;;;17.32;55.24;95682.13;5040534;28;20443;-68
2021/09/06 02:47:18;;;;;;;13.27;10.00;;;;;;;17.31;55.26;95691.94;5047477;28;20474;-68
2021/09/06 02:49:44;;;;;;;13.90;9.60;;;;;;;17.29;55.08;95695.91;5044660;28;20492;-68
2021/09/06 02:52:18;;;;;;;13.70;10.10;;;;;;;17.20;56.05;95698.38;5045918;28;20446;-71
2021/09/06 02:54:45;;;;;;;14.00;9.80;;;;;;;17.26;55.57;95696.47;5039651;28;20441;-66
2021/09/06 02:57:13;;;;;;;12.50;9.27;;;;;;;17.21;55.98;95697.28;5027702;28;20475;-69
2021/09/06 02:59:40;;;;;;;12.63;9.47;;;;;;;17.15;55.79;95696.53;5034758;28;20518;-69
2021/09/06 03:02:07;;;;;;;11.57;9.07;;;;;;;17.12;56.12;95701.59;5047262;28;20480;-67
2021/09/06 03:04:35;;;;;;;13.50;9.13;;;;;;;17.11;56.07;95705.31;5055632;28;20809;-65
2021/09/06 03:07:03;;;;;;;13.50;9.07;;;;;;;17.10;55.71;95698.44;5052532;28;21353;-67
2021/09/06 03:09:30;;;;;;;14.53;9.23;;;;;;;17.10;56.11;95704.53;5052418;28;20480;-65
2021/09/06 03:11:58;;;;;;;9.97;8.40;;;;;;;16.95;57.07;95707.28;5065125;28;20429;-68
2021/09/06 03:14:25;;;;;;;11.60;8.17;;;;;;;16.92;57.68;95713.13;5038991;28;20443;-70
2021/09/06 03:16:52;;;;;;;13.10;9.10;;;;;;;16.79;57.91;95713.75;5042880;28;20444;-70
2021/09/06 03:19:20;;;;;;;10.20;8.43;;;;;;;16.84;57.98;95702.34;5041026;28;20438;-70
2021/09/06 03:21:50;;;;;;;12.00;8.27;;;;;;;16.81;58.02;95706.31;5030374;28;20460;-69
2021/09/06 03:24:20;;;;;;;13.83;8.67;;;;;;;16.81;57.93;95700.22;5041979;28;20462;-67
2021/09/06 03:26:47;;;;;;;10.73;8.70;;;;;;;16.91;57.70;95698.31;5047761;28;20436;-66
2021/09/06 03:29:14;;;;;;;12.53;8.70;;;;;;;16.90;58.39;95704.66;5040722;28;20627;-68
2021/09/06 03:31:42;;;;;;;10.97;9.53;;;;;;;16.78;58.80;95706.06;5036522;28;21042;-65
2021/09/06 03:34:08;;;;;;;11.07;9.43;;;;;;;16.74;58.84;95719.06;5052330;28;20431;-68
2021/09/06 03:36:37;;;;;;;11.97;9.17;;;;;;;16.83;58.56;95713.97;5060676;28;20450;-68
2021/09/06 03:39:04;;;;;;;12.73;8.83;;;;;;;16.83;58.32;95712.13;5054033;28;20440;-68
2021/09/06 03:41:34;;;;;;;10.80;9.70;;;;;;;16.76;58.90;95727.53;5060960;28;20449;-65
2021/09/06 03:44:01;;;;;;;11.00;9.43;;;;;;;16.71;58.49;95718.81;5057121;28;20450;-67
2021/09/06 03:46:30;;;;;;;12.70;9.57;;;;;;;16.73;58.70;95725.41;5053242;28;20478;-70
2021/09/06 03:48:59;;;;;;;12.10;9.83;;;;;;;16.78;59.41;95733.34;5048513;28;20927;-71
2021/09/06 03:51:26;;;;;;;11.37;10.00;;;;;;;16.64;59.75;95724.41;5031622;28;20496;-68
2021/09/06 03:53:54;;;;;;;17.97;11.60;;;;;;;16.49;60.42;95737.72;5045291;28;20466;-65
2021/09/06 03:56:24;;;;;;;17.33;11.30;;;;;;;16.46;60.79;95735.56;5042923;28;20469;-70
2021/09/06 03:58:51;;;;;;;15.17;12.00;;;;;;;16.24;61.07;95728.00;5044405;28;20458;-66
2021/09/06 04:01:18;;;;;;;17.57;11.80;;;;;;;16.30;60.92;95734.06;5037272;28;20508;-68
2021/09/06 04:03:47;;;;;;;21.17;12.87;;;;;;;16.37;60.68;95731.13;5056853;28;20824;-69
2021/09/06 04:06:15;;;;;;;19.03;13.00;;;;;;;16.30;60.92;95730.59;5051288;28;20903;-66
2021/09/06 04:08:44;;;;;;;15.87;12.07;;;;;;;16.27;61.00;95741.75;5041791;28;20542;-69
2021/09/06 04:11:15;;;;;;;19.50;13.67;;;;;;;16.38;60.64;95728.22;5061397;28;20513;-69
2021/09/06 04:13:43;;;;;;;20.67;12.47;;;;;;;16.49;60.43;95729.78;5060563;28;20799;-66
2021/09/06 04:16:11;;;;;;;16.73;11.77;;;;;;;16.54;60.22;95737.69;5051465;28;20447;-66
2021/09/06 04:18:39;;;;;;;17.73;12.13;;;;;;;16.66;59.83;95735.50;5036672;28;20442;-69
2021/09/06 04:21:06;;;;;;;16.20;12.37;;;;;;;16.55;60.12;95741.13;5049902;28;20535;-68
2021/09/06 04:23:36;;;;;;;16.17;12.90;;;;;;;16.53;60.97;95741.38;5050360;28;20508;-68
2021/09/06 04:26:05;;;;;;;19.43;11.73;;;;;;;16.38;60.80;95753.88;5049942;28;20509;-71
2021/09/06 04:28:39;;;;;;;14.60;12.23;;;;;;;16.45;60.60;95757.81;5045330;28;20881;-69
2021/09/06 04:31:06;;;;;;;15.77;12.30;;;;;;;16.50;60.83;95747.22;5040366;28;20446;-70
2021/09/06 04:33:35;;;;;;;21.20;11.93;;;;;;;16.67;59.86;95755.63;5049539;28;20475;-69
2021/09/06 04:36:03;;;;;;;17.63;11.53;;;;;;;16.40;60.70;95752.53;5058559;28;20892;-67
2021/09/06 04:38:37;;;;;;;16.13;11.73;;;;;;;16.62;59.97;95758.31;5055992;28;20452;-65
2021/09/06 04:41:04;;;;;;;19.27;12.67;;;;;;;16.68;59.56;95759.03;5060064;28;20545;-67
2021/09/06 04:43:32;;;;;;;16.97;11.87;;;;;;;16.23;61.38;95762.66;5068103;28;20474;-68
2021/09/06 04:46:03;;;;;;;19.33;11.37;;;;;;;16.37;61.48;95768.94;5041580;28;20983;-67
2021/09/06 04:48:31;;;;;;;16.20;11.43;;;;;;;16.54;60.58;95769.44;5043528;28;20478;-70
2021/09/06 04:50:58;;;;;;;18.07;11.90;;;;;;;16.61;60.72;95772.59;5049444;28;20447;-70
2021/09/06 04:53:28;;;;;;;20.53;12.83;;;;;;;16.53;60.91;95773.13;5050292;28;20486;-70
2021/09/06 04:55:57;;;;;;;24.10;11.67;;;;;;;16.59;60.14;95772.06;5060893;28;20452;-70
2021/09/06 04:58:26;;;;;;;14.43;11.30;;;;;;;16.65;60.30;95765.69;5064591;28;20442;-71
2021/09/06 05:00:53;;;;;;;22.57;11.07;;;;;;;16.59;60.70;95772.06;5060506;28;20475;-66
2021/09/06 05:03:21;;;;;;;18.97;11.30;;;;;;;16.53;60.92;95777.66;5049644;28;20828;-69
2021/09/06 05:05:48;;;;;;;17.53;11.80;;;;;;;16.52;61.21;95781.34;5057794;28;20439;-71
2021/09/06 05:08:15;;;;;;;17.77;11.57;;;;;;;16.67;60.97;95781.28;5055482;28;20471;-70
2021/09/06 05:10:45;;;;;;;12.97;10.20;;;;;;;16.82;60.36;95786.53;5052009;28;20470;-67
2021/09/06 05:13:14;;;;;;;13.57;10.53;;;;;;;16.85;59.95;95792.06;5051590;28;20439;-67
2021/09/06 05:15:41;;;;;;;17.93;11.33;;;;;;;16.87;60.08;95783.84;5043359;28;20443;-66
2021/09/06 05:18:11;;;;;;;14.33;10.37;;;;;;;16.45;61.17;95786.91;5035350;28;20451;-69
2021/09/06 05:20:40;;;;;;;14.03;10.80;;;;;;;16.66;60.41;95799.03;5048004;28;20474;-66
2021/09/06 05:23:08;;;;;;;14.17;10.47;;;;;;;16.83;60.65;95791.53;5044148;28;20475;-68
2021/09/06 05:25:36;;;;;;;12.87;10.23;;;;;;;16.86;59.65;95798.16;5047980;28;20492;-68
2021/09/06 05:28:04;;;;;;;15.13;10.30;;;;;;;17.01;59.97;95798.84;5045398;28;21087;-67
2021/09/06 05:30:31;;;;;;;15.13;10.33;;;;;;;16.91;59.76;95795.47;5042710;28;20501;-69
2021/09/06 05:32:58;;;;;;;18.13;11.00;;;;;;;17.03;60.24;95806.53;5048710;28;20450;-67
2021/09/06 05:35:26;;;;;;;14.07;9.90;;;;;;;17.14;60.02;95800.09;5045762;28;20447;-66
2021/09/06 05:37:54;;;;;;;16.87;10.47;;;;;;;17.20;59.83;95783.94;5055960;28;20482;-68
2021/09/06 05:40:38;;;;;;;13.23;10.40;;;;;;;17.36;59.99;95791.75;5049976;28;20537;-68
2021/09/06 05:43:05;;;;;;;14.50;9.93;;;;;;;17.23;59.75;95791.31;5058131;28;20518;-69
2021/09/06 05:45:34;;;;;;;12.70;9.57;;;;;;;17.22;60.12;95799.53;5048667;28;20439;-65
2021/09/06 05:48:01;;;;;;;17.50;10.57;;;;;;;17.37;59.39;95785.41;5052373;28;20474;-69
2021/09/06 05:50:33;;;;;;;15.43;10.50;;;;;;;17.55;58.83;95792.72;5035500;28;20535;-68
2021/09/06 05:53:32;;;;;;;15.77;11.03;;;;;;;17.60;59.09;95797.97;5035505;28;20828;-70
2021/09/06 05:56:04;;;;;;;16.27;11.00;;;;;;;17.55;60.04;95796.16;5035815;28;20458;-66
2021/09/06 05:58:33;;;;;;;15.87;10.87;;;;;;;17.79;59.68;95793.59;5031316;28;20455;-68
2021/09/06 06:01:01;;;;;;;14.53;11.03;;;;;;;17.83;59.76;95794.59;5029172;28;20452;-68
2021/09/06 06:03:33;;;;;;;14.60;11.13;;;;;;;17.75;60.12;95789.91;5031651;28;20439;-65
2021/09/06 06:06:04;;;;;;;18.37;11.77;;;;;;;17.89;59.49;95796.13;5036075;28;20482;-71
2021/09/06 06:08:31;;;;;;;16.13;11.87;;;;;;;18.05;59.46;95800.22;5034611;28;20590;-67
2021/09/06 06:11:01;;;;;;;17.23;12.50;;;;;;;18.22;58.90;95789.97;5031434;28;20875;-67
2021/09/06 06:13:29;;;;;;;19.60;11.90;;;;;;;18.43;58.73;95796.66;5035287;28;20881;-67
2021/09/06 06:15:56;;;;;;;15.30;11.80;;;;;;;18.21;59.00;95804.31;5034870;28;20497;-64
2021/09/06 06:18:34;;;;;;;20.37;11.33;;;;;;;18.57;58.32;95791.50;5037915;28;20432;-67
2021/09/06 06:21:04;;;;;;;26.57;23.70;;;;;;;18.87;57.94;95791.91;5030583;28;20530;-64
2021/09/06 06:23:51;;;;;;;26.77;20.17;;;;;;;18.93;56.68;95790.78;5040332;28;20444;-63
2021/09/06 06:26:32;;;;;;;23.30;19.80;;;;;;;19.15;56.69;95780.38;5031473;28;20526;-63
2021/09/06 06:29:02;;;;;;;15.03;11.70;;;;;;;19.28;56.10;95788.69;5035924;28;20512;-62
2021/09/06 06:31:30;;;;;;;14.73;11.80;;;;;;;19.37;56.41;95795.78;5031616;28;20197;-65
2021/09/06 06:34:00;;;;;;;15.23;10.93;;;;;;;19.44;56.13;95796.19;5017933;28;20232;-63
2021/09/06 06:36:31;;;;;;;14.70;10.87;;;;;;;19.33;56.34;95801.94;5043667;28;20201;-63
2021/09/06 06:39:17;;;;;;;17.00;11.50;;;;;;;19.26;56.29;95788.19;5037736;28;20675;-66
2021/09/06 06:41:50;;;;;;;15.67;14.03;;;;;;;19.26;55.64;95799.63;5037655;28;20567;-68
2021/09/06 06:44:17;;;;;;;118.00;99.33;;;;;;;19.53;56.82;95794.44;5042139;28;20447;-69
2021/09/06 06:46:44;;;;;;;97.80;84.97;;;;;;;19.59;56.21;95797.81;5036149;28;20193;-68
2021/09/06 06:49:14;;;;;;;15.80;11.70;;;;;;;19.63;55.59;95804.94;5038239;28;20274;-63
2021/09/06 06:51:42;;;;;;;17.10;11.20;;;;;;;19.61;55.93;95808.97;5039197;28;20215;-66
2021/09/06 06:54:09;;;;;;;14.83;11.23;;;;;;;19.78;55.41;95811.91;5042862;28;20200;-67
2021/09/06 06:56:39;;;;;;;20.53;11.53;;;;;;;19.78;55.56;95814.56;5043102;28;20228;-68
2021/09/06 06:59:09;;;;;;;14.57;10.70;;;;;;;19.75;54.78;95807.94;5041860;28;20259;-64
2021/09/06 07:01:35;;;;;;;15.07;10.57;;;;;;;19.70;54.75;95815.19;5034534;28;20803;-65
2021/09/06 07:04:04;;;;;;;13.33;10.10;;;;;;;19.81;54.24;95816.63;5040463;28;20188;-64
2021/09/06 07:06:35;;;;;;;13.47;10.03;;;;;;;20.00;54.57;95814.69;5046034;28;20200;-68
2021/09/06 07:09:02;;;;;;;22.03;16.53;;;;;;;20.10;54.10;95820.66;5035898;28;20221;-69
2021/09/06 07:11:31;;;;;;;16.30;11.80;;;;;;;20.11;55.28;95816.09;5038856;28;20697;-68
2021/09/06 07:14:01;;;;;;;14.97;10.27;;;;;;;20.23;54.83;95829.78;5036186;28;20209;-64
2021/09/06 07:16:28;;;;;;;12.30;9.53;;;;;;;20.26;53.31;95823.84;5045375;28;20403;-67
2021/09/06 07:18:57;;;;;;;12.30;9.40;;;;;;;20.45;52.93;95827.25;5044487;28;20216;-67
2021/09/06 07:21:25;;;;;;;15.50;9.33;;;;;;;20.46;54.05;95828.03;5038072;28;20651;-67
2021/09/06 07:23:53;;;;;;;14.60;10.93;;;;;;;20.37;54.23;95830.59;5047115;28;20710;-66
2021/09/06 07:26:22;;;;;;;16.27;12.00;;;;;;;20.30;54.25;95829.38;5051843;28;20204;-69
2021/09/06 07:28:53;;;;;;;23.67;19.13;;;;;;;20.70;53.45;95834.75;5059767;28;20212;-67
2021/09/06 07:31:20;;;;;;;16.10;12.17;;;;;;;20.82;52.10;95827.03;5057846;28;20201;-69
2021/09/06 07:33:47;;;;;;;12.20;8.93;;;;;;;20.73;51.54;95834.16;5042288;28;20181;-67
2021/09/06 07:36:15;;;;;;;14.20;10.60;;;;;;;21.06;51.80;95832.97;5043199;28;20221;-68
2021/09/06 07:38:43;;;;;;;11.40;8.90;;;;;;;21.17;50.16;95822.91;5034645;28;20583;-67
2021/09/06 07:41:11;;;;;;;15.73;9.60;;;;;;;21.32;50.56;95821.78;5044642;28;20331;-65
2021/09/06 07:43:38;;;;;;;13.83;9.73;;;;;;;21.31;50.27;95822.88;5036398;28;20312;-67
2021/09/06 07:46:06;;;;;;;11.67;9.13;;;;;;;21.44;50.82;95825.50;5043788;28;20197;-67
2021/09/06 07:48:33;;;;;;;18.83;8.43;;;;;;;21.31;50.08;95823.69;5044400;28;20252;-67
2021/09/06 07:51:00;;;;;;;13.57;9.23;;;;;;;21.30;50.08;95827.41;5050172;28;20588;-69
2021/09/06 07:53:27;;;;;;;14.00;9.20;;;;;;;21.38;49.51;95817.91;5043776;28;20254;-69
2021/09/06 07:55:54;;;;;;;10.33;8.37;;;;;;;21.36;48.82;95820.09;5046351;28;20196;-67
2021/09/06 07:58:25;;;;;;;12.07;7.93;;;;;;;21.49;48.03;95824.59;5044600;28;20203;-66
2021/09/06 08:00:53;;;;;;;11.30;7.73;;;;;;;21.79;47.46;95813.25;5039711;28;20589;-66
2021/09/06 08:03:21;;;;;;;9.60;7.47;;;;;;;21.73;47.72;95825.88;5047359;28;20193;-66
2021/09/06 08:05:48;;;;;;;10.67;8.20;;;;;;;21.61;46.96;95822.19;5042038;28;20195;-70
2021/09/06 08:08:15;;;;;;;12.63;8.20;;;;;;;21.95;48.76;95823.25;5036898;28;20236;-70
2021/09/06 08:10:44;;;;;;;11.83;7.93;;;;;;;21.50;46.64;95826.16;5043031;28;20267;-68
2021/09/06 08:13:17;;;;;;;13.87;8.10;;;;;;;21.74;47.17;95816.00;5038320;28;20212;-69
2021/09/06 08:15:45;;;;;;;11.43;7.87;;;;;;;22.02;46.40;95812.16;5037225;28;20209;-70
2021/09/06 08:18:12;;;;;;;11.83;7.40;;;;;;;22.12;46.98;95809.22;5043071;28;20204;-66
2021/09/06 08:20:44;;;;;;;11.93;8.40;;;;;;;22.10;46.23;95816.75;5043143;28;20210;-68
2021/09/06 08:23:12;;;;;;;10.07;7.80;;;;;;;22.43;45.78;95818.03;5046872;28;20694;-66
2021/09/06 08:25:41;;;;;;;9.23;7.27;;;;;;;22.54;44.55;95819.34;5046438;28;20212;-70
2021/09/06 08:28:09;;;;;;;10.30;7.00;;;;;;;22.23;44.68;95818.56;5040295;28;20194;-73
2021/09/06 08:30:38;;;;;;;12.43;7.00;;;;;;;22.12;43.74;95823.38;5042633;28;20224;-70
2021/09/06 08:33:06;;;;;;;9.63;6.90;;;;;;;22.48;44.47;95820.56;5042091;28;20291;-69
2021/09/06 08:35:33;;;;;;;8.73;6.80;;;;;;;22.82;42.13;95810.06;5044453;28;20197;-70
2021/09/06 08:38:02;;;;;;;11.93;6.63;;;;;;;22.64;42.86;95812.97;5036775;28;20303;-69
2021/09/06 08:40:29;;;;;;;11.20;7.47;;;;;;;22.82;44.56;95814.59;5040329;28;20196;-77
2021/09/06 08:43:02;;;;;;;9.60;7.10;;;;;;;22.75;41.79;95820.41;5037104;28;20255;-74
2021/09/06 08:45:32;;;;;;;12.73;7.40;;;;;;;22.57;42.39;95816.06;5045706;28;20204;-73
2021/09/06 08:47:59;;;;;;;34.97;26.03;;;;;;;22.66;43.20;95816.13;5030762;28;20189;-70
2021/09/06 08:50:32;;;;;;;15.17;11.87;;;;;;;22.84;40.96;95818.56;5044465;28;20228;-71
2021/09/06 08:53:00;;;;;;;9.93;7.67;;;;;;;22.99;41.09;95820.78;5034444;28;20197;-70
2021/09/06 08:55:28;;;;;;;10.93;7.50;;;;;;;22.77;40.83;95823.53;5030686;28;20208;-70
2021/09/06 08:57:57;;;;;;;13.87;8.00;;;;;;;22.78;42.46;95819.78;5032844;28;20190;-68
2021/09/06 09:00:29;;;;;;;8.93;7.43;;;;;;;23.36;42.38;95813.31;5029165;28;20320;-71
2021/09/06 09:03:19;;;;;;;10.97;7.90;;;;;;;23.30;41.38;95814.59;5036331;28;20204;-70
2021/09/06 09:06:06;;;;;;;9.77;7.47;;;;;;;22.75;40.40;95817.75;5035017;28;20288;-69
2021/09/06 09:08:51;;;;;;;13.47;7.93;;;;;;;23.43;41.18;95814.41;5031121;28;20294;-71
2021/09/06 09:11:38;;;;;;;11.27;7.83;;;;;;;23.52;39.70;95828.59;5037994;28;20215;-75
2021/09/06 09:14:28;;;;;;;9.67;7.87;;;;;;;23.72;40.03;95816.50;5034439;28;20208;-72
2021/09/06 09:17:10;;;;;;;15.13;12.43;;;;;;;23.27;39.46;95815.16;5029540;28;20647;-71
2021/09/06 09:20:07;;;;;;;50.00;39.77;;;;;;;23.27;39.84;95810.59;5033260;28;20189;-71
2021/09/06 09:23:02;;;;;;;26.07;11.93;;;;;;;23.06;40.38;95810.41;5032708;28;20683;-71
2021/09/06 09:25:41;;;;;;;11.33;7.90;;;;;;;23.35;40.00;95819.78;5029340;28;20213;-70
2021/09/06 09:28:46;;;;;;;11.53;7.17;;;;;;;23.44;39.61;95816.00;5041533;28;20200;-69
2021/09/06 09:31:52;;;;;;;9.27;7.63;;;;;;;23.90;40.26;95807.34;5048566;28;20200;-70
2021/09/06 09:34:41;;;;;;;11.63;7.10;;;;;;;24.27;39.85;95801.28;5042875;28;20295;-72
2021/09/06 09:37:27;;;;;;;10.53;6.70;;;;;;;23.19;38.89;95802.59;5046867;28;20196;-70
2021/09/06 09:39:57;;;;;;;8.37;7.43;;;;;;;22.68;40.26;95787.97;5049409;28;20299;-70
2021/09/06 09:42:30;;;;;;;9.17;7.70;;;;;;;23.22;41.68;95807.28;5036285;28;20228;-70
2021/09/06 09:45:00;;;;;;;12.93;7.83;;;;;;;23.19;41.12;95802.59;5050318;28;20212;-70
2021/09/06 09:47:58;;;;;;;9.67;7.80;;;;;;;22.70;42.16;95806.41;5038759;28;20646;-71
2021/09/06 09:50:28;;;;;;;12.83;8.17;;;;;;;22.74;42.38;95812.69;5049413;28;20299;-70
2021/09/06 09:52:56;;;;;;;13.63;7.80;;;;;;;22.74;42.57;95808.13;5050213;28;20196;-70
2021/09/06 09:55:25;;;;;;;11.37;8.03;;;;;;;22.60;42.48;95812.81;5051554;28;20290;-71
2021/09/06 09:57:52;;;;;;;31.97;11.63;;;;;;;22.43;43.01;95796.66;5037198;28;20199;-69
2021/09/06 10:00:20;;;;;;;21.00;10.57;;;;;;;22.52;42.70;95810.84;5050788;28;20204;-71
2021/09/06 10:03:02;;;;;;;14.77;8.80;;;;;;;22.35;43.01;95805.44;5050670;28;20222;-69
2021/09/06 10:05:32;;;;;;;10.50;7.73;;;;;;;21.98;42.82;95816.53;5050265;28;20200;-70
2021/09/06 10:08:05;;;;;;;8.93;7.00;;;;;;;22.00;43.02;95817.00;5049541;28;20196;-69
2021/09/06 10:10:39;;;;;;;10.57;7.40;;;;;;;22.29;42.90;95820.00;5049882;28;20232;-69
2021/09/06 10:13:14;;;;;;;10.17;7.53;;;;;;;22.22;43.34;95800.19;5030514;28;20193;-71
2021/09/06 10:15:55;;;;;;;10.70;7.27;;;;;;;22.28;43.82;95810.41;5029752;28;20192;-74
2021/09/06 10:18:23;;;;;;;9.87;8.13;;;;;;;22.29;43.55;95800.53;5039014;28;20220;-72
2021/09/06 10:20:55;;;;;;;96.93;68.97;;;;;;;22.27;42.55;95803.50;5041102;28;20205;-71
2021/09/06 10:23:44;;;;;;;136.27;84.67;;;;;;;22.70;41.98;95801.06;5048091;28;20184;-70
2021/09/06 10:26:13;;;;;;;14.07;9.67;;;;;;;23.31;41.21;95805.44;5049531;28;20279;-71
2021/09/06 10:28:41;;;;;;;8.73;6.57;;;;;;;23.66;38.93;95799.00;5038738;28;20192;-74
2021/09/06 10:31:22;;;;;;;7.53;6.17;;;;;;;24.09;36.15;95799.75;5042060;28;20856;-70
2021/09/06 10:33:58;;;;;;;6.63;5.90;;;;;;;24.27;35.51;95801.28;5043710;28;20204;-74
2021/09/06 10:36:25;;;;;;;9.87;5.73;;;;;;;24.35;34.09;95778.25;5048634;28;20207;-74
2021/09/06 10:39:01;;;;;;;6.57;5.27;;;;;;;24.68;34.80;95789.97;5052175;28;20214;-78
2021/09/06 10:41:28;;;;;;;13.20;5.43;;;;;;;24.42;33.78;95797.31;5046012;28;20204;-73
2021/09/06 10:44:08;;;;;;;10.23;5.93;;;;;;;25.00;34.66;95787.44;5053631;28;20701;-73
2021/09/06 10:46:35;;;;;;;9.87;7.27;;;;;;;24.20;37.37;95787.59;5046012;28;20746;-75
2021/09/06 10:49:27;;;;;;;10.97;6.70;;;;;;;23.87;37.87;95791.91;5043294;28;20633;-73
2021/09/06 10:51:59;;;;;;;14.77;7.03;;;;;;;23.62;38.05;95800.75;5041759;28;20599;-71
2021/09/06 10:54:27;;;;;;;9.07;6.63;;;;;;;23.28;38.55;95800.69;5053033;28;20212;-73
2021/09/06 10:56:56;;;;;;;11.10;7.20;;;;;;;23.23;39.49;95808.88;5062330;28;20207;-73
2021/09/06 10:59:27;;;;;;;10.90;7.87;;;;;;;23.17;40.19;95802.09;5053468;28;20202;-73
2021/09/06 11:01:57;;;;;;;9.43;7.73;;;;;;;23.39;40.15;95802.00;5054082;28;20193;-71
2021/09/06 11:04:27;;;;;;;9.87;6.77;;;;;;;23.58;40.12;95805.13;5053514;28;20211;-74
2021/09/06 11:07:14;;;;;;;9.93;7.73;;;;;;;23.55;39.00;95805.78;5056817;28;20197;-72
2021/09/06 11:09:43;;;;;;;10.20;7.67;;;;;;;23.53;39.92;95807.97;5060485;28;20698;-70
2021/09/06 11:12:13;;;;;;;9.67;7.90;;;;;;;23.48;39.47;95802.78;5051933;28;20200;-70
2021/09/06 11:14:45;;;;;;;14.00;7.30;;;;;;;23.79;39.26;95804.22;5041548;28;20197;-72
2021/09/06 11:17:38;;;;;;;20.10;14.20;;;;;;;23.75;39.46;95800.59;5051903;28;20737;-71
2021/09/06 11:20:16;;;;;;;28.50;25.13;;;;;;;23.78;39.09;95799.94;5052135;28;20207;-70
2021/09/06 11:22:43;;;;;;;9.73;7.50;;;;;;;23.66;38.68;95793.66;5041838;28;20667;-69
2021/09/06 11:25:10;;;;;;;9.77;6.93;;;;;;;23.67;38.81;95811.28;5051534;28;20204;-75
2021/09/06 11:27:38;;;;;;;7.80;6.63;;;;;;;24.09;38.64;95805.13;5052470;28;20740;-67
2021/09/06 11:30:07;;;;;;;9.70;6.40;;;;;;;23.55;38.44;95805.78;5050082;28;20311;-70
2021/09/06 11:32:47;;;;;;;7.77;6.90;;;;;;;24.07;38.53;95802.75;5041681;28;20204;-75
2021/09/06 11:35:15;;;;;;;10.63;6.53;;;;;;;24.51;37.70;95798.84;5053807;28;20204;-70
2021/09/06 11:37:43;;;;;;;8.77;6.93;;;;;;;24.89;36.80;95802.34;5053007;28;20224;-73
2021/09/06 11:40:11;;;;;;;10.50;6.63;;;;;;;24.95;37.51;95793.00;5039456;28;20220;-77
2021/09/06 11:42:38;;;;;;;9.37;6.83;;;;;;;25.01;36.69;95799.75;5051422;28;20589;-72